sensor_id;sensor_type;location;lat;lon;timestamp;P1;durP1;ratioP1;P2;durP2;ratioP2
7398;SDS011;3740;50.700;7.184;2023-05-29T00:01:53;6.30;;;5.00;;
7398;SDS011;3740;50.700;7.184;2023-05-29T00:04:19;6.60;;;5.60;;
7398;SDS011;3740;50.700;7.184;2023-05-29T00:06:46;7.45;;;6.53;;
7398;SDS011;3740;50.700;7.184;2023-05-29T00:09:12;7.63;;;6.77;;
7398;SDS011;3740;50.700;7.184;2023-05-29T00:11:37;9.45;;;7.05;;
7398;SDS011;3740;50.700;7.184;2023-05-29T00:14:03;8.85;;;7.20;;
7398;SDS011;3740;50.700;7.184;2023-05-29T00:16:28;7.60;;;6.73;;
7398;SDS011;3740;50.700;7.184;2023-05-29T00:18:54;5.93;;;5.38;;
7398;SDS011;3740;50.700;7.184;2023-05-29T00:21:20;7.13;;;5.03;;
7398;SDS011;3740;50.700;7.184;2023-05-29T00:23:46;5.13;;;4.60;;
7398;SDS011;3740;50.700;7.184;2023-05-29T00:26:12;6.73;;;4.87;;
7398;SDS011;3740;50.700;7.184;2023-05-29T00:28:38;7.73;;;5.17;;
7398;SDS011;3740;50.700;7.184;2023-05-29T00:31:04;6.10;;;4.60;;
7398;SDS011;3740;50.700;7.184;2023-05-29T00:33:30;4.80;;;4.30;;
7398;SDS011;3740;50.700;7.184;2023-05-29T00:35:55;6.80;;;4.87;;
7398;SDS011;3740;50.700;7.184;2023-05-29T00:38:21;5.37;;;4.80;;
7398;SDS011;3740;50.700;7.184;2023-05-29T00:40:46;5.50;;;4.73;;
7398;SDS011;3740;50.700;7.184;2023-05-29T00:43:12;7.43;;;5.23;;
7398;SDS011;3740;50.700;7.184;2023-05-29T00:45:38;5.73;;;4.63;;
7398;SDS011;3740;50.700;7.184;2023-05-29T00:48:03;5.63;;;4.60;;
7398;SDS011;3740;50.700;7.184;2023-05-29T00:50:30;5.57;;;5.00;;
7398;SDS011;3740;50.700;7.184;2023-05-29T00:52:56;7.60;;;5.67;;
7398;SDS011;3740;50.700;7.184;2023-05-29T00:55:23;6.73;;;5.90;;
7398;SDS011;3740;50.700;7.184;2023-05-29T00:57:49;8.33;;;6.87;;
7398;SDS011;3740;50.700;7.184;2023-05-29T01:00:15;7.37;;;6.57;;
7398;SDS011;3740;50.700;7.184;2023-05-29T01:02:41;6.93;;;6.23;;
7398;SDS011;3740;50.700;7.184;2023-05-29T01:05:10;6.63;;;5.73;;
7398;SDS011;3740;50.700;7.184;2023-05-29T01:07:36;8.43;;;6.33;;
7398;SDS011;3740;50.700;7.184;2023-05-29T01:10:03;8.30;;;5.87;;
7398;SDS011;3740;50.700;7.184;2023-05-29T01:15:37;5.60;;;4.93;;
7398;SDS011;3740;50.700;7.184;2023-05-29T01:21:11;7.10;;;5.53;;
7398;SDS011;3740;50.700;7.184;2023-05-29T01:29:19;7.47;;;5.00;;
7398;SDS011;3740;50.700;7.184;2023-05-29T01:31:48;6.10;;;4.93;;
7398;SDS011;3740;50.700;7.184;2023-05-29T01:34:15;5.77;;;5.00;;
7398;SDS011;3740;50.700;7.184;2023-05-29T01:36:40;5.33;;;4.83;;
7398;SDS011;3740;50.700;7.184;2023-05-29T01:39:06;6.30;;;5.10;;
7398;SDS011;3740;50.700;7.184;2023-05-29T01:41:32;4.90;;;4.30;;
7398;SDS011;3740;50.700;7.184;2023-05-29T01:44:01;7.60;;;5.27;;
7398;SDS011;3740;50.700;7.184;2023-05-29T01:46:29;6.07;;;4.67;;
7398;SDS011;3740;50.700;7.184;2023-05-29T01:48:55;6.27;;;4.70;;
7398;SDS011;3740;50.700;7.184;2023-05-29T01:51:21;5.80;;;5.20;;
7398;SDS011;3740;50.700;7.184;2023-05-29T01:53:46;5.40;;;4.90;;
7398;SDS011;3740;50.700;7.184;2023-05-29T01:56:12;5.40;;;4.67;;
7398;SDS011;3740;50.700;7.184;2023-05-29T01:58:38;5.50;;;5.00;;
7398;SDS011;3740;50.700;7.184;2023-05-29T02:01:05;6.50;;;5.10;;
7398;SDS011;3740;50.700;7.184;2023-05-29T02:03:31;5.33;;;4.77;;
7398;SDS011;3740;50.700;7.184;2023-05-29T02:05:58;5.80;;;5.20;;
7398;SDS011;3740;50.700;7.184;2023-05-29T02:08:24;6.30;;;5.20;;
7398;SDS011;3740;50.700;7.184;2023-05-29T02:10:49;6.73;;;5.23;;
7398;SDS011;3740;50.700;7.184;2023-05-29T02:13:16;6.17;;;5.53;;
7398;SDS011;3740;50.700;7.184;2023-05-29T02:15:42;5.63;;;5.10;;
7398;SDS011;3740;50.700;7.184;2023-05-29T02:18:11;5.20;;;4.80;;
7398;SDS011;3740;50.700;7.184;2023-05-29T02:20:38;6.23;;;5.00;;
7398;SDS011;3740;50.700;7.184;2023-05-29T02:23:04;6.20;;;5.00;;
7398;SDS011;3740;50.700;7.184;2023-05-29T02:25:30;5.87;;;5.20;;
7398;SDS011;3740;50.700;7.184;2023-05-29T02:27:55;6.33;;;4.77;;
7398;SDS011;3740;50.700;7.184;2023-05-29T02:30:21;5.57;;;4.93;;
7398;SDS011;3740;50.700;7.184;2023-05-29T02:32:47;5.90;;;5.13;;
7398;SDS011;3740;50.700;7.184;2023-05-29T02:35:12;7.30;;;5.57;;
7398;SDS011;3740;50.700;7.184;2023-05-29T02:37:42;5.87;;;5.20;;
7398;SDS011;3740;50.700;7.184;2023-05-29T02:40:08;6.33;;;5.50;;
7398;SDS011;3740;50.700;7.184;2023-05-29T02:42:35;5.93;;;5.10;;
7398;SDS011;3740;50.700;7.184;2023-05-29T02:45:00;6.23;;;5.13;;
7398;SDS011;3740;50.700;7.184;2023-05-29T02:47:26;6.07;;;5.13;;
7398;SDS011;3740;50.700;7.184;2023-05-29T02:49:51;6.23;;;5.33;;
7398;SDS011;3740;50.700;7.184;2023-05-29T02:52:17;5.70;;;5.10;;
7398;SDS011;3740;50.700;7.184;2023-05-29T02:54:42;8.07;;;5.00;;
7398;SDS011;3740;50.700;7.184;2023-05-29T02:57:08;8.07;;;5.73;;
7398;SDS011;3740;50.700;7.184;2023-05-29T02:59:34;5.80;;;5.20;;
7398;SDS011;3740;50.700;7.184;2023-05-29T03:02:00;6.10;;;5.03;;
7398;SDS011;3740;50.700;7.184;2023-05-29T03:04:26;7.10;;;5.57;;
7398;SDS011;3740;50.700;7.184;2023-05-29T03:06:52;6.83;;;5.43;;
7398;SDS011;3740;50.700;7.184;2023-05-29T03:09:18;7.17;;;5.23;;
7398;SDS011;3740;50.700;7.184;2023-05-29T03:11:44;7.23;;;5.27;;
7398;SDS011;3740;50.700;7.184;2023-05-29T03:14:10;6.23;;;4.67;;
7398;SDS011;3740;50.700;7.184;2023-05-29T03:16:35;5.67;;;5.13;;
7398;SDS011;3740;50.700;7.184;2023-05-29T03:19:03;7.07;;;5.23;;
7398;SDS011;3740;50.700;7.184;2023-05-29T03:21:28;5.63;;;5.13;;
7398;SDS011;3740;50.700;7.184;2023-05-29T03:23:54;6.53;;;5.43;;
7398;SDS011;3740;50.700;7.184;2023-05-29T03:26:19;7.07;;;5.07;;
7398;SDS011;3740;50.700;7.184;2023-05-29T03:28:46;5.83;;;5.20;;
7398;SDS011;3740;50.700;7.184;2023-05-29T03:31:12;6.20;;;5.10;;
7398;SDS011;3740;50.700;7.184;2023-05-29T03:33:37;5.87;;;5.13;;
7398;SDS011;3740;50.700;7.184;2023-05-29T03:36:03;6.60;;;5.40;;
7398;SDS011;3740;50.700;7.184;2023-05-29T03:38:28;6.13;;;5.33;;
7398;SDS011;3740;50.700;7.184;2023-05-29T03:40:54;6.47;;;5.40;;
7398;SDS011;3740;50.700;7.184;2023-05-29T03:43:20;5.40;;;4.87;;
7398;SDS011;3740;50.700;7.184;2023-05-29T03:45:45;5.53;;;4.67;;
7398;SDS011;3740;50.700;7.184;2023-05-29T03:48:11;5.63;;;5.03;;
7398;SDS011;3740;50.700;7.184;2023-05-29T03:50:36;8.10;;;5.30;;
7398;SDS011;3740;50.700;7.184;2023-05-29T03:53:02;6.23;;;4.90;;
7398;SDS011;3740;50.700;7.184;2023-05-29T03:55:27;7.53;;;5.23;;
7398;SDS011;3740;50.700;7.184;2023-05-29T03:57:53;7.07;;;5.40;;
7398;SDS011;3740;50.700;7.184;2023-05-29T04:00:19;5.20;;;4.70;;
7398;SDS011;3740;50.700;7.184;2023-05-29T04:02:44;5.77;;;4.77;;
7398;SDS011;3740;50.700;7.184;2023-05-29T04:05:10;5.37;;;4.70;;
7398;SDS011;3740;50.700;7.184;2023-05-29T04:07:37;6.07;;;5.10;;
7398;SDS011;3740;50.700;7.184;2023-05-29T04:10:03;6.60;;;5.00;;
7398;SDS011;3740;50.700;7.184;2023-05-29T04:12:30;7.67;;;5.20;;
7398;SDS011;3740;50.700;7.184;2023-05-29T04:14:56;5.93;;;5.03;;
7398;SDS011;3740;50.700;7.184;2023-05-29T04:17:22;6.83;;;4.97;;
7398;SDS011;3740;50.700;7.184;2023-05-29T04:19:47;6.93;;;5.00;;
7398;SDS011;3740;50.700;7.184;2023-05-29T04:22:13;7.00;;;5.20;;
7398;SDS011;3740;50.700;7.184;2023-05-29T04:24:39;5.83;;;4.93;;
7398;SDS011;3740;50.700;7.184;2023-05-29T04:27:05;7.20;;;4.80;;
7398;SDS011;3740;50.700;7.184;2023-05-29T04:29:30;6.80;;;5.07;;
7398;SDS011;3740;50.700;7.184;2023-05-29T04:31:57;5.00;;;4.50;;
7398;SDS011;3740;50.700;7.184;2023-05-29T04:34:23;5.13;;;4.57;;
7398;SDS011;3740;50.700;7.184;2023-05-29T04:36:48;5.60;;;4.73;;
7398;SDS011;3740;50.700;7.184;2023-05-29T04:39:14;9.57;;;5.20;;
7398;SDS011;3740;50.700;7.184;2023-05-29T04:41:40;5.70;;;4.60;;
7398;SDS011;3740;50.700;7.184;2023-05-29T04:44:08;7.30;;;4.97;;
7398;SDS011;3740;50.700;7.184;2023-05-29T04:46:36;5.70;;;4.60;;
7398;SDS011;3740;50.700;7.184;2023-05-29T04:49:03;7.10;;;5.07;;
7398;SDS011;3740;50.700;7.184;2023-05-29T04:51:29;7.93;;;5.40;;
7398;SDS011;3740;50.700;7.184;2023-05-29T04:53:55;6.33;;;5.33;;
7398;SDS011;3740;50.700;7.184;2023-05-29T04:56:21;6.37;;;4.70;;
7398;SDS011;3740;50.700;7.184;2023-05-29T04:58:47;7.20;;;5.53;;
7398;SDS011;3740;50.700;7.184;2023-05-29T05:01:13;6.10;;;4.70;;
7398;SDS011;3740;50.700;7.184;2023-05-29T05:03:39;5.83;;;5.10;;
7398;SDS011;3740;50.700;7.184;2023-05-29T05:06:09;7.07;;;5.17;;
7398;SDS011;3740;50.700;7.184;2023-05-29T05:08:35;6.20;;;5.10;;
7398;SDS011;3740;50.700;7.184;2023-05-29T05:11:00;6.53;;;5.13;;
7398;SDS011;3740;50.700;7.184;2023-05-29T05:13:26;6.07;;;5.43;;
7398;SDS011;3740;50.700;7.184;2023-05-29T05:15:52;7.23;;;5.37;;
7398;SDS011;3740;50.700;7.184;2023-05-29T05:18:18;8.50;;;5.53;;
7398;SDS011;3740;50.700;7.184;2023-05-29T05:20:44;7.77;;;5.80;;
7398;SDS011;3740;50.700;7.184;2023-05-29T05:23:10;7.90;;;5.93;;
7398;SDS011;3740;50.700;7.184;2023-05-29T05:25:36;6.90;;;5.10;;
7398;SDS011;3740;50.700;7.184;2023-05-29T05:28:03;7.37;;;5.50;;
7398;SDS011;3740;50.700;7.184;2023-05-29T05:30:33;6.97;;;5.50;;
7398;SDS011;3740;50.700;7.184;2023-05-29T05:32:58;8.13;;;5.70;;
7398;SDS011;3740;50.700;7.184;2023-05-29T05:35:24;8.60;;;5.57;;
7398;SDS011;3740;50.700;7.184;2023-05-29T05:37:49;6.70;;;5.43;;
7398;SDS011;3740;50.700;7.184;2023-05-29T05:40:15;9.40;;;5.90;;
7398;SDS011;3740;50.700;7.184;2023-05-29T05:42:40;7.63;;;5.67;;
7398;SDS011;3740;50.700;7.184;2023-05-29T05:45:06;7.80;;;5.77;;
7398;SDS011;3740;50.700;7.184;2023-05-29T05:47:32;12.27;;;7.17;;
7398;SDS011;3740;50.700;7.184;2023-05-29T05:49:58;7.47;;;5.90;;
7398;SDS011;3740;50.700;7.184;2023-05-29T05:52:24;9.47;;;6.27;;
7398;SDS011;3740;50.700;7.184;2023-05-29T05:54:50;7.53;;;6.00;;
7398;SDS011;3740;50.700;7.184;2023-05-29T05:57:16;8.30;;;5.80;;
7398;SDS011;3740;50.700;7.184;2023-05-29T05:59:42;8.53;;;6.07;;
7398;SDS011;3740;50.700;7.184;2023-05-29T06:02:07;8.37;;;5.90;;
7398;SDS011;3740;50.700;7.184;2023-05-29T06:04:33;7.63;;;6.20;;
7398;SDS011;3740;50.700;7.184;2023-05-29T06:06:58;9.77;;;5.63;;
7398;SDS011;3740;50.700;7.184;2023-05-29T06:09:24;7.87;;;6.07;;
7398;SDS011;3740;50.700;7.184;2023-05-29T06:11:50;8.10;;;6.20;;
7398;SDS011;3740;50.700;7.184;2023-05-29T06:14:16;10.47;;;7.07;;
7398;SDS011;3740;50.700;7.184;2023-05-29T06:16:42;10.50;;;7.03;;
7398;SDS011;3740;50.700;7.184;2023-05-29T06:19:08;9.90;;;6.83;;
7398;SDS011;3740;50.700;7.184;2023-05-29T06:21:33;8.37;;;6.00;;
7398;SDS011;3740;50.700;7.184;2023-05-29T06:23:59;9.33;;;5.90;;
7398;SDS011;3740;50.700;7.184;2023-05-29T06:26:25;9.57;;;6.50;;
7398;SDS011;3740;50.700;7.184;2023-05-29T06:28:51;11.27;;;6.90;;
7398;SDS011;3740;50.700;7.184;2023-05-29T06:31:17;9.97;;;6.87;;
7398;SDS011;3740;50.700;7.184;2023-05-29T06:33:43;10.33;;;6.73;;
7398;SDS011;3740;50.700;7.184;2023-05-29T06:36:09;9.80;;;6.63;;
7398;SDS011;3740;50.700;7.184;2023-05-29T06:38:35;9.53;;;6.27;;
7398;SDS011;3740;50.700;7.184;2023-05-29T06:41:01;7.50;;;5.80;;
7398;SDS011;3740;50.700;7.184;2023-05-29T06:43:27;9.73;;;6.53;;
7398;SDS011;3740;50.700;7.184;2023-05-29T06:45:53;9.07;;;6.17;;
7398;SDS011;3740;50.700;7.184;2023-05-29T06:48:18;10.40;;;7.00;;
7398;SDS011;3740;50.700;7.184;2023-05-29T06:50:44;9.30;;;6.60;;
7398;SDS011;3740;50.700;7.184;2023-05-29T06:53:10;8.90;;;6.60;;
7398;SDS011;3740;50.700;7.184;2023-05-29T06:55:36;7.87;;;5.93;;
7398;SDS011;3740;50.700;7.184;2023-05-29T06:58:01;6.23;;;5.63;;
7398;SDS011;3740;50.700;7.184;2023-05-29T07:00:27;9.63;;;6.70;;
7398;SDS011;3740;50.700;7.184;2023-05-29T07:02:53;8.97;;;6.60;;
7398;SDS011;3740;50.700;7.184;2023-05-29T07:05:19;8.87;;;6.97;;
7398;SDS011;3740;50.700;7.184;2023-05-29T07:07:44;9.30;;;5.97;;
7398;SDS011;3740;50.700;7.184;2023-05-29T07:10:10;9.93;;;6.20;;
7398;SDS011;3740;50.700;7.184;2023-05-29T07:12:35;6.87;;;5.90;;
7398;SDS011;3740;50.700;7.184;2023-05-29T07:15:01;8.97;;;6.57;;
7398;SDS011;3740;50.700;7.184;2023-05-29T07:17:27;7.97;;;6.03;;
7398;SDS011;3740;50.700;7.184;2023-05-29T07:19:53;8.07;;;5.97;;
7398;SDS011;3740;50.700;7.184;2023-05-29T07:22:19;10.77;;;6.83;;
7398;SDS011;3740;50.700;7.184;2023-05-29T07:24:45;8.37;;;6.43;;
7398;SDS011;3740;50.700;7.184;2023-05-29T07:27:10;10.43;;;6.47;;
7398;SDS011;3740;50.700;7.184;2023-05-29T07:29:36;9.73;;;6.57;;
7398;SDS011;3740;50.700;7.184;2023-05-29T07:32:01;9.23;;;7.20;;
7398;SDS011;3740;50.700;7.184;2023-05-29T07:34:27;9.03;;;6.03;;
7398;SDS011;3740;50.700;7.184;2023-05-29T07:37:05;7.20;;;6.03;;
7398;SDS011;3740;50.700;7.184;2023-05-29T07:39:32;12.03;;;6.90;;
7398;SDS011;3740;50.700;7.184;2023-05-29T07:41:59;9.63;;;6.23;;
7398;SDS011;3740;50.700;7.184;2023-05-29T07:44:26;12.67;;;7.13;;
7398;SDS011;3740;50.700;7.184;2023-05-29T07:46:51;11.13;;;6.70;;
7398;SDS011;3740;50.700;7.184;2023-05-29T07:49:17;8.50;;;6.70;;
7398;SDS011;3740;50.700;7.184;2023-05-29T07:51:43;10.40;;;6.33;;
7398;SDS011;3740;50.700;7.184;2023-05-29T07:54:08;10.27;;;6.67;;
7398;SDS011;3740;50.700;7.184;2023-05-29T07:56:34;9.07;;;6.20;;
7398;SDS011;3740;50.700;7.184;2023-05-29T07:58:59;9.03;;;6.93;;
7398;SDS011;3740;50.700;7.184;2023-05-29T08:01:26;7.90;;;6.32;;
7398;SDS011;3740;50.700;7.184;2023-05-29T08:03:52;10.43;;;7.03;;
7398;SDS011;3740;50.700;7.184;2023-05-29T08:06:17;9.03;;;6.33;;
7398;SDS011;3740;50.700;7.184;2023-05-29T08:08:43;9.23;;;7.00;;
7398;SDS011;3740;50.700;7.184;2023-05-29T08:11:09;9.90;;;6.80;;
7398;SDS011;3740;50.700;7.184;2023-05-29T08:13:35;8.97;;;7.00;;
7398;SDS011;3740;50.700;7.184;2023-05-29T08:16:01;12.43;;;7.00;;
7398;SDS011;3740;50.700;7.184;2023-05-29T08:18:27;9.87;;;6.20;;
7398;SDS011;3740;50.700;7.184;2023-05-29T08:20:55;11.50;;;6.67;;
7398;SDS011;3740;50.700;7.184;2023-05-29T08:23:20;11.03;;;7.07;;
7398;SDS011;3740;50.700;7.184;2023-05-29T08:25:46;11.93;;;7.00;;
7398;SDS011;3740;50.700;7.184;2023-05-29T08:28:12;8.33;;;6.23;;
7398;SDS011;3740;50.700;7.184;2023-05-29T08:30:39;10.83;;;6.80;;
7398;SDS011;3740;50.700;7.184;2023-05-29T08:33:05;9.23;;;6.37;;
7398;SDS011;3740;50.700;7.184;2023-05-29T08:35:30;12.07;;;7.22;;
7398;SDS011;3740;50.700;7.184;2023-05-29T08:37:56;9.57;;;7.10;;
7398;SDS011;3740;50.700;7.184;2023-05-29T08:40:21;8.60;;;5.93;;
7398;SDS011;3740;50.700;7.184;2023-05-29T08:42:55;9.67;;;6.13;;
7398;SDS011;3740;50.700;7.184;2023-05-29T08:45:23;8.63;;;6.07;;
7398;SDS011;3740;50.700;7.184;2023-05-29T08:47:51;10.87;;;6.63;;
7398;SDS011;3740;50.700;7.184;2023-05-29T08:50:18;10.20;;;6.20;;
7398;SDS011;3740;50.700;7.184;2023-05-29T08:52:45;9.45;;;6.85;;
7398;SDS011;3740;50.700;7.184;2023-05-29T08:55:12;10.77;;;5.97;;
7398;SDS011;3740;50.700;7.184;2023-05-29T08:57:38;8.25;;;6.15;;
7398;SDS011;3740;50.700;7.184;2023-05-29T09:00:05;11.13;;;6.38;;
7398;SDS011;3740;50.700;7.184;2023-05-29T09:02:46;9.63;;;5.82;;
7398;SDS011;3740;50.700;7.184;2023-05-29T09:05:12;8.43;;;5.95;;
7398;SDS011;3740;50.700;7.184;2023-05-29T09:07:58;9.23;;;6.45;;
7398;SDS011;3740;50.700;7.184;2023-05-29T09:10:29;10.73;;;6.63;;
7398;SDS011;3740;50.700;7.184;2023-05-29T09:12:55;7.38;;;5.68;;
7398;SDS011;3740;50.700;7.184;2023-05-29T09:15:21;11.15;;;6.65;;
7398;SDS011;3740;50.700;7.184;2023-05-29T09:17:55;10.00;;;6.32;;
7398;SDS011;3740;50.700;7.184;2023-05-29T09:20:22;8.32;;;6.05;;
7398;SDS011;3740;50.700;7.184;2023-05-29T09:23:08;8.23;;;5.53;;
7398;SDS011;3740;50.700;7.184;2023-05-29T09:25:36;10.32;;;6.15;;
7398;SDS011;3740;50.700;7.184;2023-05-29T09:28:06;8.90;;;5.80;;
7398;SDS011;3740;50.700;7.184;2023-05-29T09:30:41;9.60;;;5.93;;
7398;SDS011;3740;50.700;7.184;2023-05-29T09:33:09;8.65;;;6.07;;
7398;SDS011;3740;50.700;7.184;2023-05-29T09:35:41;7.47;;;5.38;;
7398;SDS011;3740;50.700;7.184;2023-05-29T09:38:09;9.45;;;5.63;;
7398;SDS011;3740;50.700;7.184;2023-05-29T09:40:37;9.55;;;5.65;;
7398;SDS011;3740;50.700;7.184;2023-05-29T09:43:11;11.23;;;5.90;;
7398;SDS011;3740;50.700;7.184;2023-05-29T09:45:39;8.38;;;5.20;;
7398;SDS011;3740;50.700;7.184;2023-05-29T09:48:06;7.10;;;5.22;;
7398;SDS011;3740;50.700;7.184;2023-05-29T09:50:33;7.57;;;5.00;;
7398;SDS011;3740;50.700;7.184;2023-05-29T09:52:59;8.73;;;5.03;;
7398;SDS011;3740;50.700;7.184;2023-05-29T09:55:27;10.15;;;6.07;;
7398;SDS011;3740;50.700;7.184;2023-05-29T09:57:53;9.00;;;5.82;;
7398;SDS011;3740;50.700;7.184;2023-05-29T10:00:20;12.55;;;6.00;;
7398;SDS011;3740;50.700;7.184;2023-05-29T10:02:47;10.27;;;5.25;;
7398;SDS011;3740;50.700;7.184;2023-05-29T10:05:13;8.95;;;6.07;;
7398;SDS011;3740;50.700;7.184;2023-05-29T10:07:43;8.63;;;4.95;;
7398;SDS011;3740;50.700;7.184;2023-05-29T10:10:11;8.75;;;5.43;;
7398;SDS011;3740;50.700;7.184;2023-05-29T10:12:38;7.57;;;4.95;;
7398;SDS011;3740;50.700;7.184;2023-05-29T10:15:12;9.23;;;5.10;;
7398;SDS011;3740;50.700;7.184;2023-05-29T10:17:39;8.48;;;5.70;;
7398;SDS011;3740;50.700;7.184;2023-05-29T10:20:18;8.70;;;5.45;;
7398;SDS011;3740;50.700;7.184;2023-05-29T10:22:47;10.18;;;5.70;;
7398;SDS011;3740;50.700;7.184;2023-05-29T10:25:14;8.25;;;4.95;;
7398;SDS011;3740;50.700;7.184;2023-05-29T10:27:46;9.10;;;5.10;;
7398;SDS011;3740;50.700;7.184;2023-05-29T10:30:20;8.35;;;5.30;;
7398;SDS011;3740;50.700;7.184;2023-05-29T10:32:56;11.85;;;5.25;;
7398;SDS011;3740;50.700;7.184;2023-05-29T10:35:42;8.10;;;5.72;;
7398;SDS011;3740;50.700;7.184;2023-05-29T10:38:40;10.68;;;6.18;;
7398;SDS011;3740;50.700;7.184;2023-05-29T10:44:02;9.50;;;5.85;;
7398;SDS011;3740;50.700;7.184;2023-05-29T10:49:16;8.93;;;4.85;;
7398;SDS011;3740;50.700;7.184;2023-05-29T10:51:42;8.95;;;5.28;;
7398;SDS011;3740;50.700;7.184;2023-05-29T10:54:08;8.57;;;4.97;;
7398;SDS011;3740;50.700;7.184;2023-05-29T10:56:34;8.73;;;4.93;;
7398;SDS011;3740;50.700;7.184;2023-05-29T10:59:00;7.05;;;4.80;;
7398;SDS011;3740;50.700;7.184;2023-05-29T11:01:27;7.75;;;4.75;;
7398;SDS011;3740;50.700;7.184;2023-05-29T11:06:51;5.20;;;4.13;;
7398;SDS011;3740;50.700;7.184;2023-05-29T11:12:09;9.27;;;5.18;;
7398;SDS011;3740;50.700;7.184;2023-05-29T11:14:55;7.55;;;4.50;;
7398;SDS011;3740;50.700;7.184;2023-05-29T11:17:29;5.13;;;3.70;;
7398;SDS011;3740;50.700;7.184;2023-05-29T11:20:04;6.18;;;4.70;;
7398;SDS011;3740;50.700;7.184;2023-05-29T11:25:36;7.15;;;4.53;;
7398;SDS011;3740;50.700;7.184;2023-05-29T11:28:03;6.25;;;3.92;;
7398;SDS011;3740;50.700;7.184;2023-05-29T11:30:40;6.00;;;4.25;;
7398;SDS011;3740;50.700;7.184;2023-05-29T11:33:13;7.22;;;4.10;;
7398;SDS011;3740;50.700;7.184;2023-05-29T11:35:48;7.00;;;4.85;;
7398;SDS011;3740;50.700;7.184;2023-05-29T11:38:20;7.22;;;3.88;;
7398;SDS011;3740;50.700;7.184;2023-05-29T11:40:46;6.78;;;4.53;;
7398;SDS011;3740;50.700;7.184;2023-05-29T11:43:12;6.10;;;4.53;;
7398;SDS011;3740;50.700;7.184;2023-05-29T11:45:38;7.78;;;4.85;;
7398;SDS011;3740;50.700;7.184;2023-05-29T11:48:03;7.45;;;5.88;;
7398;SDS011;3740;50.700;7.184;2023-05-29T11:50:32;6.93;;;4.70;;
7398;SDS011;3740;50.700;7.184;2023-05-29T11:52:59;5.63;;;4.00;;
7398;SDS011;3740;50.700;7.184;2023-05-29T11:55:25;8.20;;;4.20;;
7398;SDS011;3740;50.700;7.184;2023-05-29T11:58:02;5.50;;;3.95;;
7398;SDS011;3740;50.700;7.184;2023-05-29T12:00:35;6.78;;;3.83;;
7398;SDS011;3740;50.700;7.184;2023-05-29T12:03:02;5.38;;;3.50;;
7398;SDS011;3740;50.700;7.184;2023-05-29T12:05:32;6.15;;;3.85;;
7398;SDS011;3740;50.700;7.184;2023-05-29T12:08:11;5.68;;;3.53;;
7398;SDS011;3740;50.700;7.184;2023-05-29T12:10:37;6.82;;;4.03;;
7398;SDS011;3740;50.700;7.184;2023-05-29T12:13:11;4.75;;;3.85;;
7398;SDS011;3740;50.700;7.184;2023-05-29T12:15:36;5.05;;;3.38;;
7398;SDS011;3740;50.700;7.184;2023-05-29T12:18:02;3.50;;;3.20;;
7398;SDS011;3740;50.700;7.184;2023-05-29T12:20:27;4.75;;;3.40;;
7398;SDS011;3740;50.700;7.184;2023-05-29T12:22:54;5.90;;;3.63;;
7398;SDS011;3740;50.700;7.184;2023-05-29T12:25:26;6.10;;;3.80;;
7398;SDS011;3740;50.700;7.184;2023-05-29T12:27:51;5.95;;;3.55;;
7398;SDS011;3740;50.700;7.184;2023-05-29T12:30:21;6.40;;;3.38;;
7398;SDS011;3740;50.700;7.184;2023-05-29T12:32:51;4.63;;;3.70;;
7398;SDS011;3740;50.700;7.184;2023-05-29T12:35:18;6.40;;;3.92;;
7398;SDS011;3740;50.700;7.184;2023-05-29T12:40:18;4.10;;;3.55;;
7398;SDS011;3740;50.700;7.184;2023-05-29T12:42:54;3.97;;;3.53;;
7398;SDS011;3740;50.700;7.184;2023-05-29T12:45:23;5.80;;;4.30;;
7398;SDS011;3740;50.700;7.184;2023-05-29T12:48:02;7.43;;;4.28;;
7398;SDS011;3740;50.700;7.184;2023-05-29T12:50:35;4.72;;;3.45;;
7398;SDS011;3740;50.700;7.184;2023-05-29T12:53:09;6.07;;;4.10;;
7398;SDS011;3740;50.700;7.184;2023-05-29T12:55:36;7.25;;;4.22;;
7398;SDS011;3740;50.700;7.184;2023-05-29T12:58:07;5.45;;;3.55;;
7398;SDS011;3740;50.700;7.184;2023-05-29T13:00:34;3.60;;;3.25;;
7398;SDS011;3740;50.700;7.184;2023-05-29T13:03:00;4.80;;;3.67;;
7398;SDS011;3740;50.700;7.184;2023-05-29T13:05:26;4.53;;;3.42;;
7398;SDS011;3740;50.700;7.184;2023-05-29T13:07:52;6.78;;;3.45;;
7398;SDS011;3740;50.700;7.184;2023-05-29T13:10:18;5.68;;;3.58;;
7398;SDS011;3740;50.700;7.184;2023-05-29T13:12:45;5.40;;;3.85;;
7398;SDS011;3740;50.700;7.184;2023-05-29T13:15:11;5.13;;;3.30;;
7398;SDS011;3740;50.700;7.184;2023-05-29T13:17:38;4.55;;;3.60;;
7398;SDS011;3740;50.700;7.184;2023-05-29T13:22:38;5.43;;;3.95;;
7398;SDS011;3740;50.700;7.184;2023-05-29T13:25:04;5.72;;;3.45;;
7398;SDS011;3740;50.700;7.184;2023-05-29T13:27:31;5.88;;;3.88;;
7398;SDS011;3740;50.700;7.184;2023-05-29T13:30:05;3.88;;;2.90;;
7398;SDS011;3740;50.700;7.184;2023-05-29T13:32:32;4.57;;;3.53;;
7398;SDS011;3740;50.700;7.184;2023-05-29T13:34:57;4.40;;;3.40;;
7398;SDS011;3740;50.700;7.184;2023-05-29T13:37:23;5.28;;;3.75;;
7398;SDS011;3740;50.700;7.184;2023-05-29T13:39:49;4.03;;;2.95;;
7398;SDS011;3740;50.700;7.184;2023-05-29T13:42:15;6.32;;;3.58;;
7398;SDS011;3740;50.700;7.184;2023-05-29T13:44:41;6.95;;;3.80;;
7398;SDS011;3740;50.700;7.184;2023-05-29T13:47:06;4.88;;;3.40;;
7398;SDS011;3740;50.700;7.184;2023-05-29T13:49:33;4.50;;;3.40;;
7398;SDS011;3740;50.700;7.184;2023-05-29T13:51:59;5.15;;;3.92;;
7398;SDS011;3740;50.700;7.184;2023-05-29T13:54:25;6.28;;;4.25;;
7398;SDS011;3740;50.700;7.184;2023-05-29T13:56:54;4.50;;;3.50;;
7398;SDS011;3740;50.700;7.184;2023-05-29T13:59:20;5.60;;;3.75;;
7398;SDS011;3740;50.700;7.184;2023-05-29T14:01:46;4.90;;;3.10;;
7398;SDS011;3740;50.700;7.184;2023-05-29T14:04:12;5.00;;;3.72;;
7398;SDS011;3740;50.700;7.184;2023-05-29T14:06:38;6.20;;;3.83;;
7398;SDS011;3740;50.700;7.184;2023-05-29T14:09:03;4.65;;;3.63;;
7398;SDS011;3740;50.700;7.184;2023-05-29T14:11:29;6.65;;;4.07;;
7398;SDS011;3740;50.700;7.184;2023-05-29T14:13:55;6.68;;;4.22;;
7398;SDS011;3740;50.700;7.184;2023-05-29T14:16:20;6.13;;;3.72;;
7398;SDS011;3740;50.700;7.184;2023-05-29T14:18:46;4.57;;;3.63;;
7398;SDS011;3740;50.700;7.184;2023-05-29T14:21:13;5.32;;;3.75;;
7398;SDS011;3740;50.700;7.184;2023-05-29T14:23:39;5.70;;;3.90;;
7398;SDS011;3740;50.700;7.184;2023-05-29T14:26:04;7.22;;;3.90;;
7398;SDS011;3740;50.700;7.184;2023-05-29T14:28:30;6.00;;;3.85;;
7398;SDS011;3740;50.700;7.184;2023-05-29T14:30:55;5.93;;;3.97;;
7398;SDS011;3740;50.700;7.184;2023-05-29T14:33:21;6.07;;;3.60;;
7398;SDS011;3740;50.700;7.184;2023-05-29T14:35:46;5.10;;;3.50;;
7398;SDS011;3740;50.700;7.184;2023-05-29T14:38:12;5.45;;;3.65;;
7398;SDS011;3740;50.700;7.184;2023-05-29T14:40:37;6.18;;;3.95;;
7398;SDS011;3740;50.700;7.184;2023-05-29T14:43:03;5.72;;;4.10;;
7398;SDS011;3740;50.700;7.184;2023-05-29T14:45:29;5.88;;;3.58;;
7398;SDS011;3740;50.700;7.184;2023-05-29T14:47:55;6.13;;;3.60;;
7398;SDS011;3740;50.700;7.184;2023-05-29T14:50:20;7.05;;;4.30;;
7398;SDS011;3740;50.700;7.184;2023-05-29T14:52:46;5.73;;;3.97;;
7398;SDS011;3740;50.700;7.184;2023-05-29T14:55:13;6.95;;;4.05;;
7398;SDS011;3740;50.700;7.184;2023-05-29T14:57:40;5.68;;;3.78;;
7398;SDS011;3740;50.700;7.184;2023-05-29T15:00:06;7.47;;;4.07;;
7398;SDS011;3740;50.700;7.184;2023-05-29T15:02:32;7.90;;;4.60;;
7398;SDS011;3740;50.700;7.184;2023-05-29T15:04:57;4.82;;;3.63;;
7398;SDS011;3740;50.700;7.184;2023-05-29T15:07:23;10.30;;;5.05;;
7398;SDS011;3740;50.700;7.184;2023-05-29T15:09:49;6.47;;;4.32;;
7398;SDS011;3740;50.700;7.184;2023-05-29T15:12:14;6.70;;;4.38;;
7398;SDS011;3740;50.700;7.184;2023-05-29T15:14:40;5.63;;;3.80;;
7398;SDS011;3740;50.700;7.184;2023-05-29T15:17:05;7.95;;;4.43;;
7398;SDS011;3740;50.700;7.184;2023-05-29T15:19:31;13.40;;;4.50;;
7398;SDS011;3740;50.700;7.184;2023-05-29T15:21:57;8.02;;;4.20;;
7398;SDS011;3740;50.700;7.184;2023-05-29T15:24:23;5.28;;;3.70;;
7398;SDS011;3740;50.700;7.184;2023-05-29T15:26:48;6.53;;;4.53;;
7398;SDS011;3740;50.700;7.184;2023-05-29T15:29:15;7.10;;;4.20;;
7398;SDS011;3740;50.700;7.184;2023-05-29T15:31:40;6.85;;;3.53;;
7398;SDS011;3740;50.700;7.184;2023-05-29T15:34:06;6.40;;;4.00;;
7398;SDS011;3740;50.700;7.184;2023-05-29T15:36:32;6.22;;;4.00;;
7398;SDS011;3740;50.700;7.184;2023-05-29T15:38:57;4.70;;;3.58;;
7398;SDS011;3740;50.700;7.184;2023-05-29T15:41:23;6.20;;;4.15;;
7398;SDS011;3740;50.700;7.184;2023-05-29T15:43:54;5.63;;;3.65;;
7398;SDS011;3740;50.700;7.184;2023-05-29T15:46:20;4.25;;;3.65;;